Time;durP1;ratioP1;P1;durP2;ratioP2;P2;SDS_P1;SDS_P2;PMS_P1;PMS_P2;Temp;Humidity;BMP_temperature;BMP_pressure;BME280_temperature;BME280_humidity;BME280_pressure;Samples;Min_cycle;Max_cycle;Signal;HPM_P1;HPM_P2
2021/09/16 00:00:41;;;;;;;1.70;1.60;;;20.30;99.90;;;;;;5032848;28;20178;-61
2021/09/16 00:03:06;;;;;;;2.20;1.40;;;20.30;99.90;;;;;;5033053;28;20627;-62
2021/09/16 00:05:32;;;;;;;2.60;1.63;;;20.40;99.90;;;;;;5032625;28;20231;-61
2021/09/16 00:07:58;;;;;;;1.80;1.40;;;20.30;99.90;;;;;;5032680;28;20171;-62
2021/09/16 00:10:23;;;;;;;1.70;1.60;;;20.40;99.90;;;;;;5032473;28;20237;-62
2021/09/16 00:12:49;;;;;;;2.50;1.47;;;20.40;99.90;;;;;;5032654;28;20163;-61
2021/09/16 00:15:14;;;;;;;1.90;1.40;;;20.40;99.90;;;;;;5032663;28;20649;-62
2021/09/16 00:17:40;;;;;;;4.40;2.07;;;20.40;99.90;;;;;;5032611;28;20172;-61
2021/09/16 00:20:07;;;;;;;2.17;1.60;;;20.40;99.90;;;;;;5032394;28;20167;-61
2021/09/16 00:22:33;;;;;;;1.80;1.70;;;20.50;99.90;;;;;;5032576;28;20452;-61
2021/09/16 00:24:58;;;;;;;2.20;1.80;;;20.40;99.90;;;;;;5032132;28;20500;-62
2021/09/16 00:27:24;;;;;;;1.40;1.30;;;20.50;99.90;;;;;;5032597;28;20164;-62
2021/09/16 00:29:50;;;;;;;2.47;1.33;;;20.40;99.90;;;;;;5032736;28;20310;-61
2021/09/16 00:32:15;;;;;;;1.40;1.30;;;20.40;99.90;;;;;;5036639;28;20530;-62
2021/09/16 00:34:41;;;;;;;2.10;1.63;;;20.40;99.90;;;;;;5036934;28;20191;-63
2021/09/16 00:37:06;;;;;;;4.03;1.60;;;20.50;99.90;;;;;;5036183;28;20273;-62
2021/09/16 00:39:32;;;;;;;2.40;1.50;;;20.60;99.90;;;;;;5036027;28;20171;-62
2021/09/16 00:41:58;;;;;;;1.90;1.30;;;20.40;99.90;;;;;;5002317;28;20173;-62
2021/09/16 00:44:23;;;;;;;4.10;1.80;;;20.30;99.90;;;;;;4996687;28;20199;-62
2021/09/16 00:46:50;;;;;;;1.50;1.30;;;20.30;99.90;;;;;;4996618;28;20224;-62
2021/09/16 00:49:16;;;;;;;1.30;1.20;;;20.30;99.90;;;;;;4996515;28;20171;-62
2021/09/16 00:51:45;;;;;;;2.67;1.70;;;20.40;99.90;;;;;;4996265;28;20534;-62
2021/09/16 00:54:12;;;;;;;2.67;1.57;;;20.40;99.90;;;;;;5001870;28;20598;-63
2021/09/16 00:56:39;;;;;;;2.60;1.43;;;20.40;99.90;;;;;;5016121;28;20399;-62
2021/09/16 00:59:05;;;;;;;1.87;1.20;;;20.50;99.90;;;;;;5016475;28;20415;-61
2021/09/16 01:01:32;;;;;;;2.60;1.30;;;20.40;99.90;;;;;;5016209;28;20414;-60
2021/09/16 01:03:58;;;;;;;1.40;1.30;;;20.40;99.90;;;;;;5016022;28;20433;-62
2021/09/16 01:06:27;;;;;;;2.73;1.30;;;20.40;99.90;;;;;;5015780;28;20971;-61
2021/09/16 01:08:53;;;;;;;1.80;1.50;;;20.30;99.90;;;;;;5016183;28;20174;-62
2021/09/16 01:11:20;;;;;;;1.77;1.10;;;20.30;99.90;;;;;;5015912;28;20438;-62
2021/09/16 01:13:46;;;;;;;1.60;1.43;;;20.40;99.90;;;;;;5015741;28;20426;-62
2021/09/16 01:16:12;;;;;;;3.53;1.13;;;20.60;99.90;;;;;;5015698;28;20399;-61
2021/09/16 01:18:38;;;;;;;1.30;1.17;;;20.60;99.90;;;;;;5015652;28;20805;-61
2021/09/16 01:21:03;;;;;;;1.37;1.10;;;20.60;99.90;;;;;;5015683;28;20421;-61
2021/09/16 01:23:29;;;;;;;1.47;1.20;;;20.70;99.90;;;;;;5015553;28;20649;-61
2021/09/16 01:25:55;;;;;;;3.10;1.43;;;20.70;99.90;;;;;;5015631;28;20543;-61
2021/09/16 01:28:21;;;;;;;2.37;1.40;;;20.60;99.90;;;;;;5016240;28;20242;-59
2021/09/16 01:30:47;;;;;;;2.60;1.50;;;20.40;99.90;;;;;;5012569;28;20196;-60
2021/09/16 01:33:13;;;;;;;1.43;1.20;;;20.50;99.90;;;;;;5006719;28;20707;-60
2021/09/16 01:35:39;;;;;;;1.80;1.13;;;20.60;99.90;;;;;;5015192;28;20426;-60
2021/09/16 01:38:05;;;;;;;2.70;1.50;;;20.70;99.90;;;;;;5015623;28;20407;-61
2021/09/16 01:40:30;;;;;;;1.70;1.40;;;20.80;99.90;;;;;;5015160;28;20819;-61
2021/09/16 01:42:56;;;;;;;1.90;1.07;;;20.80;99.90;;;;;;5014720;28;20184;-61
2021/09/16 01:45:25;;;;;;;2.10;1.40;;;20.80;99.90;;;;;;5015219;28;20188;-61
2021/09/16 01:47:51;;;;;;;2.03;1.30;;;20.60;99.90;;;;;;5015378;28;20721;-61
2021/09/16 01:50:20;;;;;;;2.70;1.50;;;20.70;99.90;;;;;;5014835;28;20509;-62
2021/09/16 01:52:46;;;;;;;1.33;1.20;;;20.80;99.90;;;;;;5015065;28;20452;-61
2021/09/16 01:55:13;;;;;;;1.20;1.03;;;20.70;99.90;;;;;;5014695;28;20431;-61
2021/09/16 01:57:39;;;;;;;2.03;1.43;;;20.80;99.90;;;;;;4997694;28;20772;-61
2021/09/16 02:00:06;;;;;;;1.33;1.23;;;20.60;99.90;;;;;;4997475;28;20407;-60
2021/09/16 02:02:32;;;;;;;1.73;1.30;;;20.60;99.90;;;;;;5014752;28;20164;-61
2021/09/16 02:04:57;;;;;;;1.10;1.00;;;20.60;99.90;;;;;;5014472;28;20526;-60
2021/09/16 02:07:23;;;;;;;1.03;0.90;;;20.60;99.90;;;;;;5014644;28;20164;-61
2021/09/16 02:09:49;;;;;;;3.03;1.80;;;20.60;99.90;;;;;;5014969;28;20568;-61
2021/09/16 02:12:15;;;;;;;2.03;1.30;;;20.50;99.90;;;;;;5014519;28;20168;-61
2021/09/16 02:14:40;;;;;;;1.20;1.00;;;20.50;99.90;;;;;;5014563;28;20209;-61
2021/09/16 02:17:06;;;;;;;1.83;1.23;;;20.40;99.90;;;;;;5014580;28;20963;-61
2021/09/16 02:19:31;;;;;;;2.53;1.30;;;20.40;99.90;;;;;;5014767;28;20164;-61
2021/09/16 02:21:57;;;;;;;2.43;1.30;;;20.30;99.90;;;;;;5014165;28;20172;-60
2021/09/16 02:24:23;;;;;;;3.57;1.20;;;20.20;99.90;;;;;;5021085;28;20543;-61
2021/09/16 02:26:48;;;;;;;1.50;1.37;;;20.30;99.90;;;;;;5034101;28;20197;-61
2021/09/16 02:29:14;;;;;;;1.50;1.40;;;20.20;99.90;;;;;;5034334;28;20168;-62
2021/09/16 02:31:39;;;;;;;6.53;1.40;;;20.20;99.90;;;;;;5033422;28;20194;-62
2021/09/16 02:34:05;;;;;;;2.20;1.37;;;20.00;99.90;;;;;;4996958;28;20198;-61
2021/09/16 02:36:31;;;;;;;2.07;1.57;;;20.00;99.90;;;;;;4994320;28;20241;-61
2021/09/16 02:38:56;;;;;;;2.10;1.60;;;20.10;99.90;;;;;;4994934;28;20529;-60
2021/09/16 02:41:22;;;;;;;1.90;1.57;;;20.10;99.90;;;;;;4994240;28;20169;-59
2021/09/16 02:43:48;;;;;;;1.40;1.30;;;20.20;99.90;;;;;;4994582;28;20188;-60
2021/09/16 02:46:14;;;;;;;1.60;1.30;;;20.10;99.90;;;;;;4994318;28;20207;-61
2021/09/16 02:48:39;;;;;;;2.10;1.40;;;20.10;99.90;;;;;;4994334;28;20668;-60
2021/09/16 02:51:06;;;;;;;2.40;1.50;;;20.10;99.90;;;;;;4994199;28;20200;-61
2021/09/16 02:53:32;;;;;;;2.33;1.40;;;20.20;99.90;;;;;;4994257;28;20169;-60
2021/09/16 02:55:58;;;;;;;4.00;1.57;;;20.30;99.90;;;;;;5013714;28;20407;-61
2021/09/16 02:58:23;;;;;;;1.80;1.50;;;20.30;99.90;;;;;;5014167;28;20495;-61
2021/09/16 03:00:49;;;;;;;1.40;1.30;;;20.30;99.90;;;;;;5014012;28;20446;-61
2021/09/16 03:03:15;;;;;;;1.83;1.40;;;20.30;99.90;;;;;;5013673;28;20250;-61
2021/09/16 03:05:40;;;;;;;1.90;1.80;;;20.20;99.90;;;;;;5013382;28;20184;-61
2021/09/16 03:08:06;;;;;;;2.83;1.30;;;20.30;99.90;;;;;;5013973;28;20168;-61
2021/09/16 03:10:32;;;;;;;2.17;1.67;;;20.30;99.90;;;;;;5013515;28;20555;-61
2021/09/16 03:12:57;;;;;;;1.80;1.70;;;20.30;99.90;;;;;;5013441;28;20168;-61
2021/09/16 03:15:23;;;;;;;1.77;1.53;;;20.30;99.90;;;;;;4996015;28;20604;-61
2021/09/16 03:17:50;;;;;;;1.93;1.10;;;20.30;99.90;;;;;;5013592;28;20190;-61
2021/09/16 03:20:16;;;;;;;1.77;1.40;;;20.10;99.90;;;;;;5013664;28;20411;-61
2021/09/16 03:22:42;;;;;;;2.53;1.60;;;20.20;99.90;;;;;;5013747;28;20418;-61
2021/09/16 03:25:09;;;;;;;1.80;1.50;;;20.20;99.90;;;;;;5050483;23;20577;-58
2021/09/16 03:27:35;;;;;;;1.60;1.50;;;20.30;99.90;;;;;;5033382;28;20171;-58
2021/09/16 03:30:02;;;;;;;3.53;1.50;;;20.30;99.90;;;;;;5033795;28;20468;-58
2021/09/16 03:32:28;;;;;;;1.90;1.60;;;20.20;99.90;;;;;;5033633;28;20413;-58
2021/09/16 03:34:53;;;;;;;1.83;1.53;;;20.30;99.90;;;;;;5033379;28;20430;-58
2021/09/16 03:37:19;;;;;;;1.80;1.53;;;20.40;99.90;;;;;;5033170;28;20246;-58
2021/09/16 03:39:44;;;;;;;2.07;1.50;;;20.40;99.90;;;;;;5033428;28;20175;-58
2021/09/16 03:42:10;;;;;;;2.53;1.93;;;20.50;99.90;;;;;;5033806;28;20175;-58
2021/09/16 03:44:36;;;;;;;2.23;1.70;;;20.50;99.90;;;;;;5033627;28;20194;-58
2021/09/16 03:47:04;;;;;;;3.77;1.60;;;20.40;99.90;;;;;;5033627;28;20541;-58
2021/09/16 03:49:30;;;;;;;3.20;1.63;;;20.40;99.90;;;;;;5033442;28;20496;-54
2021/09/16 03:51:55;;;;;;;1.63;1.53;;;20.40;99.90;;;;;;5033252;28;20560;-57
2021/09/16 03:54:21;;;;;;;1.73;1.60;;;20.30;99.90;;;;;;5033157;28;20163;-58
2021/09/16 03:56:46;;;;;;;2.03;1.63;;;20.30;99.90;;;;;;5033187;28;20666;-58
2021/09/16 03:59:12;;;;;;;8.60;1.90;;;20.10;99.90;;;;;;5033963;28;20178;-58
2021/09/16 04:01:38;;;;;;;4.20;1.63;;;20.10;99.90;;;;;;5033296;28;20178;-58
2021/09/16 04:04:04;;;;;;;1.90;1.80;;;20.10;99.90;;;;;;5033743;28;20213;-58
2021/09/16 04:06:29;;;;;;;2.10;1.60;;;20.10;99.90;;;;;;5035743;28;20563;-57
2021/09/16 04:08:55;;;;;;;1.60;1.50;;;20.10;99.90;;;;;;5037511;28;20416;-58
2021/09/16 04:11:21;;;;;;;1.60;1.50;;;20.20;99.90;;;;;;5036974;28;20273;-58
2021/09/16 04:13:46;;;;;;;2.70;1.50;;;20.30;99.90;;;;;;5037156;28;20168;-58
2021/09/16 04:16:12;;;;;;;1.67;1.57;;;20.40;99.90;;;;;;5037194;28;20559;-58
2021/09/16 04:18:37;;;;;;;2.50;1.50;;;20.40;99.90;;;;;;5037036;28;20170;-56
2021/09/16 04:21:03;;;;;;;2.43;2.23;;;20.40;99.90;;;;;;5037517;28;20581;-58
2021/09/16 04:23:29;;;;;;;2.57;1.87;;;20.40;99.90;;;;;;5028781;28;20172;-57
2021/09/16 04:25:54;;;;;;;3.03;1.77;;;20.40;99.90;;;;;;5014821;28;20239;-57
2021/09/16 04:28:20;;;;;;;2.87;1.77;;;20.40;99.90;;;;;;5017378;28;20226;-55
2021/09/16 04:30:45;;;;;;;3.00;1.90;;;20.40;99.90;;;;;;5017401;28;20195;-55
2021/09/16 04:33:11;;;;;;;3.47;1.70;;;20.50;99.90;;;;;;5021642;28;20222;-57
2021/09/16 04:35:37;;;;;;;5.67;2.43;;;20.50;99.90;;;;;;5022658;28;20559;-56
2021/09/16 04:38:02;;;;;;;3.60;3.30;;;20.50;99.90;;;;;;5024068;28;20180;-56
2021/09/16 04:40:28;;;;;;;3.70;2.60;;;20.20;99.90;;;;;;5023668;28;20188;-55
2021/09/16 04:42:53;;;;;;;1.97;1.53;;;20.30;99.90;;;;;;5021185;28;20168;-57
2021/09/16 04:45:19;;;;;;;2.60;2.20;;;20.30;99.90;;;;;;5022093;28;20199;-58
2021/09/16 04:47:44;;;;;;;3.30;1.90;;;20.20;99.90;;;;;;5021152;28;20698;-58
2021/09/16 04:50:11;;;;;;;3.20;1.77;;;20.30;99.90;;;;;;5017700;28;20176;-57
2021/09/16 04:52:38;;;;;;;3.90;1.90;;;20.20;99.90;;;;;;5017053;28;20230;-57
2021/09/16 04:55:04;;;;;;;2.60;2.20;;;20.20;99.90;;;;;;5023921;28;20842;-58
2021/09/16 04:57:30;;;;;;;2.90;2.03;;;20.10;99.90;;;;;;5036606;28;20444;-58
2021/09/16 04:59:56;;;;;;;2.70;2.17;;;20.10;99.90;;;;;;5036139;28;20456;-56
2021/09/16 05:02:21;;;;;;;2.30;2.07;;;20.20;99.90;;;;;;5036095;28;20331;-56
2021/09/16 05:04:47;;;;;;;2.30;2.10;;;20.10;99.90;;;;;;5036479;28;20199;-58
2021/09/16 05:07:13;;;;;;;2.13;1.93;;;20.20;99.90;;;;;;5036231;28;20168;-57
2021/09/16 05:09:38;;;;;;;2.97;1.87;;;20.10;99.90;;;;;;5035886;28;20655;-57
2021/09/16 05:12:04;;;;;;;3.20;2.70;;;20.10;99.90;;;;;;5036333;28;20558;-57
2021/09/16 05:14:30;;;;;;;2.63;2.43;;;20.10;99.90;;;;;;5036718;28;20187;-55
2021/09/16 05:16:56;;;;;;;2.40;2.20;;;20.10;99.90;;;;;;5038840;28;20409;-55
2021/09/16 05:19:21;;;;;;;2.30;2.10;;;20.20;99.90;;;;;;5044133;28;20182;-55
2021/09/16 05:21:47;;;;;;;2.40;1.80;;;20.20;99.90;;;;;;5041387;28;20213;-53
2021/09/16 05:24:16;;;;;;;3.27;2.27;;;20.00;99.90;;;;;;5045087;28;20179;-59
2021/09/16 05:26:43;;;;;;;5.63;2.97;;;20.00;99.90;;;;;;5043203;28;20227;-53
2021/09/16 05:29:09;;;;;;;3.37;1.93;;;20.10;99.90;;;;;;5042612;28;20422;-57
2021/09/16 05:31:34;;;;;;;2.63;2.20;;;20.20;99.90;;;;;;5042691;28;20552;-56
2021/09/16 05:34:00;;;;;;;2.80;2.43;;;20.20;99.90;;;;;;5044261;28;20178;-58
2021/09/16 05:36:26;;;;;;;2.53;2.30;;;20.20;99.90;;;;;;5042267;28;20198;-54
2021/09/16 05:38:51;;;;;;;2.10;1.90;;;20.20;99.90;;;;;;5023903;28;20634;-57
2021/09/16 05:41:17;;;;;;;4.00;2.90;;;20.20;99.90;;;;;;5035008;28;20167;-56
2021/09/16 05:43:42;;;;;;;2.70;2.30;;;20.20;99.90;;;;;;5017385;28;20179;-56
2021/09/16 05:46:08;;;;;;;3.20;2.77;;;20.20;99.90;;;;;;5035113;28;20199;-57
2021/09/16 05:48:33;;;;;;;3.37;3.03;;;20.20;99.90;;;;;;5035165;28;20175;-57
2021/09/16 05:50:59;;;;;;;3.43;3.03;;;20.20;99.90;;;;;;5035097;28;20554;-56
2021/09/16 05:53:24;;;;;;;3.20;2.23;;;20.20;99.90;;;;;;5035150;28;20206;-58
2021/09/16 05:55:50;;;;;;;6.47;2.50;;;20.20;99.90;;;;;;5034476;28;20278;-54
2021/09/16 05:58:16;;;;;;;4.10;3.17;;;20.30;99.90;;;;;;5035327;28;20233;-56
2021/09/16 06:00:41;;;;;;;3.87;3.30;;;20.40;99.90;;;;;;5034623;28;20173;-57
2021/09/16 06:03:07;;;;;;;2.47;2.00;;;20.40;99.90;;;;;;5034775;28;20175;-57
2021/09/16 06:05:32;;;;;;;4.77;3.00;;;20.40;99.90;;;;;;5034455;28;20704;-57
2021/09/16 06:07:58;;;;;;;2.70;2.50;;;20.40;99.90;;;;;;5034388;28;20543;-57
2021/09/16 06:10:24;;;;;;;4.10;2.63;;;20.50;99.90;;;;;;5034467;28;20702;-56
2021/09/16 06:12:49;;;;;;;6.33;2.80;;;20.50;99.90;;;;;;5034696;28;20670;-56
2021/09/16 06:15:15;;;;;;;5.10;3.07;;;20.50;99.90;;;;;;5034738;28;20193;-57
2021/09/16 06:17:40;;;;;;;4.50;2.27;;;20.50;99.90;;;;;;5034825;28;20172;-57
2021/09/16 06:20:07;;;;;;;5.60;3.40;;;20.50;99.90;;;;;;5035162;28;20167;-58
2021/09/16 06:22:32;;;;;;;3.57;3.10;;;20.50;99.90;;;;;;5034385;28;20167;-57
2021/09/16 06:24:58;;;;;;;3.63;3.07;;;20.40;99.90;;;;;;5033759;28;20556;-57
2021/09/16 06:27:24;;;;;;;2.60;2.40;;;20.50;99.90;;;;;;5034273;28;20625;-56
2021/09/16 06:29:49;;;;;;;2.87;2.60;;;20.60;99.90;;;;;;5033719;28;20609;-56
2021/09/16 06:32:15;;;;;;;2.57;2.30;;;20.60;99.90;;;;;;5034053;28;20195;-57
2021/09/16 06:34:40;;;;;;;4.07;2.93;;;20.60;99.90;;;;;;5034446;28;20257;-58
2021/09/16 06:37:06;;;;;;;6.70;3.40;;;20.70;99.90;;;;;;5033856;28;20250;-57
2021/09/16 06:39:32;;;;;;;3.50;3.03;;;20.80;99.90;;;;;;5033025;28;20624;-56
2021/09/16 06:41:57;;;;;;;4.33;2.80;;;20.70;99.90;;;;;;4997020;28;20169;-57
2021/09/16 06:44:23;;;;;;;2.53;2.03;;;20.70;99.90;;;;;;4994502;28;20181;-57
2021/09/16 06:46:49;;;;;;;2.77;2.40;;;20.60;99.90;;;;;;4994601;28;20169;-57
2021/09/16 06:49:14;;;;;;;2.77;2.53;;;20.60;99.90;;;;;;4994788;28;20717;-55
2021/09/16 06:51:40;;;;;;;4.10;2.30;;;20.70;99.90;;;;;;4994535;28;20747;-57
2021/09/16 06:54:05;;;;;;;2.93;2.33;;;20.70;99.90;;;;;;4994509;28;20192;-57
2021/09/16 06:56:31;;;;;;;4.27;2.60;;;20.80;99.90;;;;;;5012858;28;20172;-57
2021/09/16 06:58:56;;;;;;;3.70;2.50;;;20.90;99.90;;;;;;5013957;28;20164;-57
2021/09/16 07:01:22;;;;;;;3.77;2.87;;;20.90;99.90;;;;;;5014875;28;20175;-57
2021/09/16 07:03:48;;;;;;;3.83;2.80;;;20.90;99.90;;;;;;5013879;28;20162;-57
2021/09/16 07:06:14;;;;;;;3.60;2.30;;;20.90;99.90;;;;;;5013612;28;20211;-58
2021/09/16 07:08:40;;;;;;;4.60;3.00;;;20.90;99.90;;;;;;5013844;28;20168;-57
2021/09/16 07:11:05;;;;;;;4.40;3.50;;;20.80;99.90;;;;;;5013214;28;20446;-57
2021/09/16 07:13:31;;;;;;;5.37;3.13;;;20.80;99.90;;;;;;5013473;28;20192;-58
2021/09/16 07:15:56;;;;;;;3.27;2.87;;;20.90;99.90;;;;;;5012434;28;20254;-57
2021/09/16 07:18:22;;;;;;;5.07;3.77;;;21.00;99.90;;;;;;5002624;28;20174;-58
2021/09/16 07:20:48;;;;;;;3.80;2.90;;;20.90;99.90;;;;;;5013846;28;20176;-55
2021/09/16 07:23:13;;;;;;;4.00;3.00;;;20.80;99.90;;;;;;5013142;28;20164;-57
2021/09/16 07:25:39;;;;;;;4.10;3.10;;;20.80;99.90;;;;;;5012873;28;20680;-53
2021/09/16 07:28:04;;;;;;;5.30;3.60;;;20.80;99.90;;;;;;5013656;28;20175;-53
2021/09/16 07:30:30;;;;;;;4.77;3.50;;;20.80;99.90;;;;;;5013539;28;20204;-56
2021/09/16 07:32:56;;;;;;;3.47;3.17;;;20.70;99.90;;;;;;5013598;28;20405;-53
2021/09/16 07:35:22;;;;;;;3.50;2.90;;;20.80;99.90;;;;;;5012827;28;20800;-56
2021/09/16 07:37:48;;;;;;;5.47;2.57;;;20.50;99.90;;;;;;5013022;28;20418;-58
2021/09/16 07:40:13;;;;;;;3.20;2.83;;;20.40;99.90;;;;;;5012182;28;20403;-57
2021/09/16 07:42:39;;;;;;;7.73;3.57;;;20.50;99.90;;;;;;5013466;28;20415;-54
2021/09/16 07:45:06;;;;;;;3.50;2.60;;;20.30;99.90;;;;;;5013435;28;20191;-55
2021/09/16 07:47:31;;;;;;;6.03;5.30;;;20.30;99.90;;;;;;5013047;28;20171;-58
2021/09/16 07:49:57;;;;;;;9.83;7.20;;;20.10;99.90;;;;;;5013341;28;20768;-54
2021/09/16 07:52:23;;;;;;;12.70;9.90;;;19.80;99.90;;;;;;5012965;28;20196;-56
2021/09/16 07:54:48;;;;;;;11.10;9.70;;;19.70;99.90;;;;;;5017982;28;20195;-58
2021/09/16 07:57:14;;;;;;;10.33;9.33;;;19.70;99.90;;;;;;5032459;28;20588;-56
2021/09/16 07:59:39;;;;;;;10.47;8.13;;;19.60;99.90;;;;;;5032965;28;20644;-56
2021/09/16 08:02:05;;;;;;;9.47;7.23;;;19.50;99.90;;;;;;5033363;28;20168;-57
2021/09/16 08:04:31;;;;;;;8.63;7.50;;;19.50;99.90;;;;;;5033254;28;20613;-55
2021/09/16 08:06:56;;;;;;;9.43;7.47;;;19.50;99.90;;;;;;5032599;28;20180;-57
2021/09/16 08:09:22;;;;;;;6.87;5.93;;;19.50;99.90;;;;;;5033461;28;20320;-57
2021/09/16 08:11:48;;;;;;;6.67;5.80;;;19.60;99.90;;;;;;5032418;28;20210;-58
2021/09/16 08:14:14;;;;;;;4.97;4.57;;;19.40;99.90;;;;;;5032946;28;20410;-58
2021/09/16 08:16:39;;;;;;;5.77;4.90;;;19.30;99.90;;;;;;5032842;28;20167;-57
2021/09/16 08:19:06;;;;;;;3.90;3.53;;;19.20;99.90;;;;;;5033334;28;20159;-56
2021/09/16 08:21:32;;;;;;;3.93;3.63;;;19.30;99.90;;;;;;5032628;28;20207;-56
2021/09/16 08:23:58;;;;;;;4.73;4.33;;;19.30;99.90;;;;;;5032938;28;20417;-57
2021/09/16 08:26:24;;;;;;;7.10;3.90;;;19.30;99.90;;;;;;5032190;28;20446;-57
2021/09/16 08:28:50;;;;;;;2.97;2.77;;;19.20;99.90;;;;;;5032919;28;20172;-58
2021/09/16 08:31:16;;;;;;;2.57;2.37;;;19.10;99.90;;;;;;5032856;28;20286;-57
2021/09/16 08:33:42;;;;;;;2.60;2.33;;;19.10;99.90;;;;;;5032906;28;20406;-58
2021/09/16 08:36:10;;;;;;;4.00;2.30;;;19.10;99.90;;;;;;5032453;28;20436;-56
2021/09/16 08:38:36;;;;;;;2.17;1.97;;;18.90;99.90;;;;;;5033230;28;20210;-58
2021/09/16 08:41:03;;;;;;;2.70;1.80;;;18.70;99.90;;;;;;5032679;28;20394;-56
2021/09/16 08:43:31;;;;;;;1.97;1.87;;;18.60;99.90;;;;;;5024291;28;20896;-58
2021/09/16 08:45:58;;;;;;;2.60;1.83;;;19.00;99.90;;;;;;4993535;28;20432;-58
2021/09/16 08:48:24;;;;;;;3.80;1.93;;;19.20;99.90;;;;;;4993625;28;20407;-57
2021/09/16 08:50:50;;;;;;;1.87;1.43;;;19.10;99.90;;;;;;4993212;28;20451;-55
2021/09/16 08:53:21;;;;;;;2.20;1.57;;;19.00;99.90;;;;;;4996367;28;20227;-58
2021/09/16 08:55:49;;;;;;;1.77;1.67;;;18.90;99.90;;;;;;5009332;28;20273;-58
2021/09/16 08:58:16;;;;;;;2.20;1.90;;;19.10;99.90;;;;;;5016290;28;20511;-58
2021/09/16 09:00:41;;;;;;;1.20;1.10;;;19.20;99.90;;;;;;5016276;28;20415;-58
2021/09/16 09:03:07;;;;;;;1.83;1.70;;;19.20;99.90;;;;;;5016319;28;20403;-57
2021/09/16 09:05:32;;;;;;;1.50;1.40;;;18.90;99.90;;;;;;5016253;28;20191;-58
2021/09/16 09:08:02;;;;;;;2.60;1.90;;;18.80;99.90;;;;;;5016038;28;20223;-58
2021/09/16 09:10:46;;;;;;;3.13;2.57;;;18.70;99.90;;;;;;5015928;28;20195;-58
2021/09/16 09:13:21;;;;;;;3.13;2.93;;;18.70;99.90;;;;;;5016590;28;20773;-58
2021/09/16 09:15:56;;;;;;;4.03;3.63;;;18.70;99.90;;;;;;5016002;28;20433;-58
2021/09/16 09:18:22;;;;;;;4.07;3.77;;;18.70;99.90;;;;;;5016383;28;20466;-58
2021/09/16 09:21:06;;;;;;;5.77;5.27;;;18.70;99.90;;;;;;5015866;28;20497;-57
2021/09/16 09:23:40;;;;;;;6.57;6.07;;;18.50;99.90;;;;;;5015658;28;20309;-56
2021/09/16 09:26:26;;;;;;;8.00;7.30;;;18.60;99.90;;;;;;5058475;23;20996;-62
2021/09/16 09:28:55;;;;;;;9.53;8.73;;;18.60;99.90;;;;;;5055162;28;20398;-63
2021/09/16 09:31:25;;;;;;;10.00;9.10;;;18.60;99.90;;;;;;5055070;28;20444;-62
2021/09/16 09:33:51;;;;;;;7.80;7.10;;;18.70;99.90;;;;;;5055055;28;20831;-62
2021/09/16 09:36:22;;;;;;;9.70;8.70;;;18.90;99.90;;;;;;5055281;28;20421;-62
2021/09/16 09:38:58;;;;;;;9.07;8.27;;;18.80;99.90;;;;;;5054978;28;20476;-62
2021/09/16 09:41:27;;;;;;;10.03;8.60;;;18.80;99.90;;;;;;5054544;28;20543;-62
2021/09/16 09:44:19;;;;;;;7.33;6.20;;;18.80;99.90;;;;;;5055003;28;20455;-62
2021/09/16 09:46:52;;;;;;;8.80;7.97;;;18.80;99.90;;;;;;5051935;28;20506;-62
2021/09/16 09:49:22;;;;;;;7.73;6.50;;;18.80;99.90;;;;;;5055586;28;20488;-62
2021/09/16 09:51:55;;;;;;;6.13;5.53;;;18.90;99.90;;;;;;5054540;28;20448;-60
2021/09/16 09:54:32;;;;;;;7.13;6.43;;;18.80;99.90;;;;;;5055437;28;20481;-61
2021/09/16 09:57:01;;;;;;;6.00;5.50;;;18.80;99.90;;;;;;5054620;28;20440;-62
2021/09/16 09:59:26;;;;;;;5.77;5.17;;;18.70;99.90;;;;;;5054603;28;20405;-62
2021/09/16 10:02:05;;;;;;;5.67;5.17;;;18.60;99.90;;;;;;5054789;28;20405;-62
2021/09/16 10:04:31;;;;;;;7.27;6.40;;;18.60;99.90;;;;;;5053678;28;20409;-62
2021/09/16 10:07:00;;;;;;;6.77;6.17;;;18.50;99.90;;;;;;5054510;28;20437;-64
2021/09/16 10:09:26;;;;;;;8.57;7.77;;;18.50;99.90;;;;;;5051488;28;20209;-63
2021/09/16 10:11:57;;;;;;;8.07;7.27;;;18.30;99.90;;;;;;5045415;28;20460;-64
2021/09/16 10:14:23;;;;;;;6.87;6.27;;;18.40;99.90;;;;;;5054142;28;20374;-62
2021/09/16 10:16:48;;;;;;;9.40;8.27;;;18.40;99.90;;;;;;5054051;28;20491;-62
2021/09/16 10:19:14;;;;;;;9.10;8.20;;;18.20;99.90;;;;;;5052912;28;20173;-63
2021/09/16 10:21:40;;;;;;;12.03;10.07;;;18.40;99.90;;;;;;5045203;28;20175;-62
2021/09/16 10:24:07;;;;;;;12.23;10.80;;;18.40;99.90;;;;;;5034527;28;20269;-62
2021/09/16 10:26:39;;;;;;;12.77;11.50;;;18.40;99.90;;;;;;5048775;28;20223;-61
2021/09/16 10:29:24;;;;;;;13.80;12.50;;;18.40;99.90;;;;;;5036329;28;20809;-62
2021/09/16 10:31:50;;;;;;;12.10;10.90;;;18.50;99.90;;;;;;5033279;28;20421;-62
2021/09/16 10:34:44;;;;;;;10.90;9.90;;;19.00;99.90;;;;;;5034153;28;20213;-62
2021/09/16 10:37:11;;;;;;;14.13;12.47;;;18.90;99.90;;;;;;5039418;28;20940;-62
2021/09/16 10:39:38;;;;;;;14.27;12.73;;;18.90;99.90;;;;;;5043080;28;20493;-62
2021/09/16 10:42:04;;;;;;;11.53;10.47;;;18.80;99.90;;;;;;5032707;28;20922;-62
2021/09/16 10:44:30;;;;;;;12.20;10.33;;;18.70;99.90;;;;;;5034200;28;20456;-62
2021/09/16 10:47:00;;;;;;;12.10;10.90;;;18.60;99.90;;;;;;5033743;28;20935;-62
2021/09/16 10:49:28;;;;;;;12.23;10.77;;;18.70;99.90;;;;;;5034110;28;20636;-62
2021/09/16 10:51:58;;;;;;;11.60;10.50;;;18.70;99.90;;;;;;5033525;28;20438;-62
2021/09/16 10:54:27;;;;;;;12.10;10.90;;;18.60;99.90;;;;;;5034001;28;20395;-61
2021/09/16 10:57:13;;;;;;;13.03;11.60;;;18.50;99.90;;;;;;5051604;28;20445;-61
2021/09/16 10:59:51;;;;;;;12.07;10.97;;;18.50;99.90;;;;;;5046705;28;20463;-62
2021/09/16 11:02:49;;;;;;;13.00;11.50;;;18.40;99.90;;;;;;5053549;28;20405;-59
2021/09/16 11:05:16;;;;;;;15.30;13.03;;;18.50;99.90;;;;;;5053266;28;20485;-61
2021/09/16 11:07:42;;;;;;;17.03;13.63;;;18.60;99.90;;;;;;5053809;28;20459;-62
2021/09/16 11:10:16;;;;;;;15.97;14.47;;;18.70;99.90;;;;;;5053256;28;20405;-61
2021/09/16 11:12:46;;;;;;;17.10;14.53;;;18.70;99.90;;;;;;5053498;28;20397;-59
2021/09/16 11:15:36;;;;;;;18.73;16.80;;;18.80;99.90;;;;;;5053119;28;20516;-62
2021/09/16 11:18:23;;;;;;;16.43;14.73;;;18.70;99.90;;;;;;5047928;28;20409;-62
2021/09/16 11:20:57;;;;;;;16.80;14.27;;;18.70;99.90;;;;;;5053573;28;20765;-62
2021/09/16 11:23:36;;;;;;;18.63;14.43;;;18.80;99.90;;;;;;5052917;28;20420;-60
2021/09/16 11:26:03;;;;;;;16.30;14.60;;;19.00;99.90;;;;;;5053059;28;20484;-62
2021/09/16 11:28:28;;;;;;;15.87;14.00;;;19.10;99.90;;;;;;5053213;28;20409;-62
2021/09/16 11:30:54;;;;;;;16.70;14.93;;;19.10;99.90;;;;;;5053119;28;20812;-59
2021/09/16 11:33:20;;;;;;;16.20;14.60;;;19.10;99.90;;;;;;5053241;28;20242;-62
2021/09/16 11:35:47;;;;;;;16.63;13.20;;;18.90;99.90;;;;;;5053069;28;20674;-62
2021/09/16 11:38:14;;;;;;;18.57;15.70;;;18.90;99.90;;;;;;5053042;28;20401;-62
2021/09/16 11:40:42;;;;;;;17.03;15.00;;;18.70;99.90;;;;;;5052692;28;20450;-61
2021/09/16 11:43:10;;;;;;;18.53;16.53;;;18.70;99.90;;;;;;5052946;28;20420;-62
2021/09/16 11:45:41;;;;;;;15.67;14.10;;;18.60;99.90;;;;;;5053518;28;20431;-63
2021/09/16 11:48:14;;;;;;;16.80;14.63;;;18.50;99.90;;;;;;5052836;28;20401;-62
2021/09/16 11:50:44;;;;;;;18.53;16.50;;;18.60;99.90;;;;;;5052564;28;20437;-61
2021/09/16 11:53:13;;;;;;;19.17;15.20;;;18.70;99.90;;;;;;5052696;28;20770;-62
2021/09/16 11:55:41;;;;;;;16.37;14.67;;;19.00;99.90;;;;;;5052634;28;20431;-62
2021/09/16 11:58:13;;;;;;;15.90;14.20;;;19.20;99.90;;;;;;5052719;28;20565;-62
2021/09/16 12:00:59;;;;;;;15.43;13.83;;;19.30;99.90;;;;;;5052427;28;20488;-62
2021/09/16 12:03:28;;;;;;;15.33;13.73;;;19.50;99.90;;;;;;5052817;28;20439;-62
2021/09/16 12:05:56;;;;;;;17.10;14.40;;;19.60;99.90;;;;;;5052948;28;20963;-62
2021/09/16 12:08:23;;;;;;;21.23;13.60;;;19.60;99.90;;;;;;5052526;28;20750;-62
2021/09/16 12:10:56;;;;;;;16.17;14.43;;;19.60;99.90;;;;;;5052414;28;20453;-62
2021/09/16 12:13:24;;;;;;;15.43;13.73;;;19.50;99.90;;;;;;5052668;28;20385;-62
2021/09/16 12:16:00;;;;;;;17.10;14.77;;;19.50;99.90;;;;;;5052871;28;20445;-62
2021/09/16 12:18:26;;;;;;;16.90;15.10;;;19.80;99.90;;;;;;5052883;28;20397;-62
2021/09/16 12:20:52;;;;;;;16.80;15.10;;;19.80;99.90;;;;;;5052600;28;20463;-61
2021/09/16 12:23:20;;;;;;;15.70;14.20;;;19.80;99.90;;;;;;5052468;28;20409;-62
2021/09/16 12:25:53;;;;;;;19.33;17.50;;;19.80;99.90;;;;;;5052033;28;20511;-62
2021/09/16 12:28:20;;;;;;;17.60;15.80;;;19.70;99.90;;;;;;5046709;28;20790;-62
2021/09/16 12:30:46;;;;;;;19.93;17.90;;;19.50;99.90;;;;;;5036472;28;20446;-62
2021/09/16 12:33:32;;;;;;;19.93;17.90;;;19.20;99.90;;;;;;5036534;28;20485;-60
2021/09/16 12:36:15;;;;;;;19.73;17.83;;;19.30;99.90;;;;;;5036643;28;20418;-61
2021/09/16 12:38:46;;;;;;;17.13;15.43;;;19.10;99.90;;;;;;5036087;28;20398;-62
2021/09/16 12:41:35;;;;;;;23.27;20.97;;;19.20;99.90;;;;;;5036033;28;20382;-62
2021/09/16 12:44:03;;;;;;;20.77;18.10;;;19.20;99.90;;;;;;5036398;28;20382;-62